sensor_id;sensor_type;location;lat;lon;timestamp;pressure;altitude;pressure_sealevel;temperature;humidity
67052;BME280;53957;47.222;18.670;2022-08-01T04:52:23;100039.84;;;15.32;94.34
67052;BME280;53957;47.222;18.670;2022-08-01T04:55:35;100046.19;;;15.45;93.26
67052;BME280;53957;47.222;18.670;2022-08-01T04:58:39;100047.06;;;15.75;92.38
67052;BME280;53957;47.222;18.670;2022-08-01T05:01:42;100052.31;;;16.10;91.95
67052;BME280;53957;47.222;18.670;2022-08-01T05:04:45;100041.09;;;16.38;89.38
67052;BME280;53957;47.222;18.670;2022-08-01T05:07:48;100042.22;;;16.58;88.64
67052;BME280;53957;47.222;18.670;2022-08-01T05:10:51;100036.00;;;16.88;86.86
67052;BME280;53957;47.222;18.670;2022-08-01T05:13:55;100037.50;;;17.19;85.92
67052;BME280;53957;47.222;18.670;2022-08-01T05:16:59;100042.69;;;17.24;86.11
67052;BME280;53957;47.222;18.670;2022-08-01T05:20:03;100035.00;;;17.47;84.87
67052;BME280;53957;47.222;18.670;2022-08-01T05:23:06;100031.91;;;17.70;84.43
67052;BME280;53957;47.222;18.670;2022-08-01T05:26:22;100041.34;;;17.89;83.01
67052;BME280;53957;47.222;18.670;2022-08-01T05:29:25;100029.91;;;18.29;82.04
67052;BME280;53957;47.222;18.670;2022-08-01T05:32:29;100031.69;;;18.49;80.59
67052;BME280;53957;47.222;18.670;2022-08-01T05:35:32;100031.97;;;18.73;79.37
67052;BME280;53957;47.222;18.670;2022-08-01T05:38:50;100037.19;;;19.22;78.19
67052;BME280;53957;47.222;18.670;2022-08-01T05:41:52;100037.34;;;19.13;77.45
67052;BME280;53957;47.222;18.670;2022-08-01T05:44:55;100042.44;;;19.15;77.67
67052;BME280;53957;47.222;18.670;2022-08-01T05:47:58;100045.56;;;19.17;76.35
67052;BME280;53957;47.222;18.670;2022-08-01T05:51:02;100055.56;;;19.45;76.04
67052;BME280;53957;47.222;18.670;2022-08-01T05:54:04;100058.22;;;19.57;75.88
67052;BME280;53957;47.222;18.670;2022-08-01T05:57:07;100057.75;;;19.55;76.08
67052;BME280;53957;47.222;18.670;2022-08-01T06:00:13;100056.22;;;20.02;74.68
67052;BME280;53957;47.222;18.670;2022-08-01T06:03:17;100057.13;;;20.42;72.69
67052;BME280;53957;47.222;18.670;2022-08-01T06:06:21;100058.81;;;20.66;71.77
67052;BME280;53957;47.222;18.670;2022-08-01T06:09:27;100049.53;;;20.83;72.10
67052;BME280;53957;47.222;18.670;2022-08-01T06:12:32;100055.97;;;21.37;70.32
67052;BME280;53957;47.222;18.670;2022-08-01T06:15:37;100053.41;;;21.45;70.18
67052;BME280;53957;47.222;18.670;2022-08-01T06:18:40;100050.56;;;21.37;69.42
67052;BME280;53957;47.222;18.670;2022-08-01T06:21:43;100053.41;;;21.68;67.60
67052;BME280;53957;47.222;18.670;2022-08-01T06:24:45;100061.59;;;21.48;67.97
67052;BME280;53957;47.222;18.670;2022-08-01T06:27:48;100050.50;;;21.34;68.78
67052;BME280;53957;47.222;18.670;2022-08-01T06:30:52;100051.69;;;21.56;67.71
67052;BME280;53957;47.222;18.670;2022-08-01T06:33:56;100057.81;;;21.76;67.50
67052;BME280;53957;47.222;18.670;2022-08-01T06:36:59;100050.47;;;21.77;67.23
67052;BME280;53957;47.222;18.670;2022-08-01T06:40:11;100059.44;;;22.04;66.48
67052;BME280;53957;47.222;18.670;2022-08-01T06:43:18;100053.59;;;22.56;67.45
67052;BME280;53957;47.222;18.670;2022-08-01T06:46:22;100057.69;;;22.42;66.19
67052;BME280;53957;47.222;18.670;2022-08-01T06:49:31;100057.69;;;23.03;63.50
67052;BME280;53957;47.222;18.670;2022-08-01T06:52:35;100057.00;;;23.13;63.08
67052;BME280;53957;47.222;18.670;2022-08-01T06:55:38;100055.28;;;23.32;62.99
67052;BME280;53957;47.222;18.670;2022-08-01T06:58:41;100048.53;;;24.05;62.19
67052;BME280;53957;47.222;18.670;2022-08-01T07:01:44;100044.84;;;23.83;60.50
67052;BME280;53957;47.222;18.670;2022-08-01T07:04:47;100057.13;;;24.07;59.92
67052;BME280;53957;47.222;18.670;2022-08-01T07:07:50;100050.69;;;23.85;62.12
67052;BME280;53957;47.222;18.670;2022-08-01T07:10:53;100046.59;;;24.75;59.85
67052;BME280;53957;47.222;18.670;2022-08-01T07:13:56;100041.28;;;25.26;56.78
67052;BME280;53957;47.222;18.670;2022-08-01T07:16:59;100047.56;;;26.02;54.18
67052;BME280;53957;47.222;18.670;2022-08-01T07:20:03;100040.78;;;26.68;52.73
67052;BME280;53957;47.222;18.670;2022-08-01T07:23:06;100043.00;;;27.03;53.27
67052;BME280;53957;47.222;18.670;2022-08-01T07:26:09;100044.41;;;26.47;53.12
67052;BME280;53957;47.222;18.670;2022-08-01T07:29:12;100029.66;;;25.98;54.24
67052;BME280;53957;47.222;18.670;2022-08-01T07:32:15;100034.72;;;25.92;57.08
67052;BME280;53957;47.222;18.670;2022-08-01T07:35:19;100045.22;;;26.30;53.90
67052;BME280;53957;47.222;18.670;2022-08-01T07:38:22;100031.97;;;25.96;56.09
67052;BME280;53957;47.222;18.670;2022-08-01T07:41:25;100032.38;;;25.91;54.97
67052;BME280;53957;47.222;18.670;2022-08-01T07:44:48;100039.78;;;25.94;58.47
67052;BME280;53957;47.222;18.670;2022-08-01T07:47:51;100039.00;;;25.71;58.80
67052;BME280;53957;47.222;18.670;2022-08-01T07:50:54;100044.47;;;25.46;58.00
67052;BME280;53957;47.222;18.670;2022-08-01T07:53:57;100056.47;;;25.23;60.56
67052;BME280;53957;47.222;18.670;2022-08-01T07:57:01;100035.88;;;25.40;57.07
67052;BME280;53957;47.222;18.670;2022-08-01T08:00:05;100041.69;;;25.35;59.49
67052;BME280;53957;47.222;18.670;2022-08-01T08:03:10;100032.38;;;25.72;56.08
67052;BME280;53957;47.222;18.670;2022-08-01T08:06:13;100032.78;;;25.53;56.42
67052;BME280;53957;47.222;18.670;2022-08-01T08:09:16;100030.34;;;25.04;60.63
67052;BME280;53957;47.222;18.670;2022-08-01T08:12:19;100035.81;;;25.15;57.02
67052;BME280;53957;47.222;18.670;2022-08-01T08:15:31;100039.72;;;25.11;59.16
67052;BME280;53957;47.222;18.670;2022-08-01T08:18:35;100042.03;;;25.08;59.42
67052;BME280;53957;47.222;18.670;2022-08-01T08:21:39;100036.97;;;25.03;58.34
67052;BME280;53957;47.222;18.670;2022-08-01T08:24:42;100042.00;;;24.94;57.73
67052;BME280;53957;47.222;18.670;2022-08-01T08:27:48;100047.44;;;24.87;59.60
67052;BME280;53957;47.222;18.670;2022-08-01T08:30:51;100047.81;;;24.89;58.79
67052;BME280;53957;47.222;18.670;2022-08-01T08:33:57;100052.91;;;24.87;58.81
67052;BME280;53957;47.222;18.670;2022-08-01T08:37:00;100052.12;;;24.94;58.08
67052;BME280;53957;47.222;18.670;2022-08-01T08:40:04;100052.12;;;24.97;59.06
67052;BME280;53957;47.222;18.670;2022-08-01T08:43:08;100057.59;;;25.01;58.13
67052;BME280;53957;47.222;18.670;2022-08-01T08:46:16;100056.88;;;25.22;58.74
67052;BME280;53957;47.222;18.670;2022-08-01T08:49:29;100056.91;;;25.36;58.57
67052;BME280;53957;47.222;18.670;2022-08-01T08:52:38;100051.50;;;25.65;56.71
67052;BME280;53957;47.222;18.670;2022-08-01T08:55:42;100048.00;;;25.61;55.78
67052;BME280;53957;47.222;18.670;2022-08-01T08:58:58;100049.94;;;25.90;55.63
67052;BME280;53957;47.222;18.670;2022-08-01T09:02:01;100046.03;;;26.16;53.57
67052;BME280;53957;47.222;18.670;2022-08-01T09:05:05;100058.13;;;26.22;54.68
67052;BME280;53957;47.222;18.670;2022-08-01T09:08:08;100064.78;;;25.85;54.74
67052;BME280;53957;47.222;18.670;2022-08-01T09:11:11;100055.41;;;25.71;54.19
67052;BME280;53957;47.222;18.670;2022-08-01T09:14:25;100059.69;;;25.58;56.75
67052;BME280;53957;47.222;18.670;2022-08-01T09:17:40;100057.75;;;25.51;56.17
67052;BME280;53957;47.222;18.670;2022-08-01T09:20:44;100066.31;;;25.61;52.76
67052;BME280;53957;47.222;18.670;2022-08-01T09:23:52;100060.09;;;25.67;54.83
67052;BME280;53957;47.222;18.670;2022-08-01T09:26:57;100054.63;;;25.82;53.64
67052;BME280;53957;47.222;18.670;2022-08-01T09:30:13;100060.87;;;26.08;52.37
67052;BME280;53957;47.222;18.670;2022-08-01T09:33:21;100048.38;;;25.78;51.25
67052;BME280;53957;47.222;18.670;2022-08-01T09:36:26;100051.50;;;25.94;50.96
67052;BME280;53957;47.222;18.670;2022-08-01T09:39:37;100048.38;;;25.85;51.88
67052;BME280;53957;47.222;18.670;2022-08-01T09:42:42;100052.62;;;26.29;51.35
67052;BME280;53957;47.222;18.670;2022-08-01T09:45:47;100052.59;;;26.44;49.21
67052;BME280;53957;47.222;18.670;2022-08-01T09:48:59;100038.47;;;26.63;48.65
67052;BME280;53957;47.222;18.670;2022-08-01T09:52:12;100050.50;;;26.84;49.96
67052;BME280;53957;47.222;18.670;2022-08-01T09:55:21;100038.44;;;26.71;46.92
67052;BME280;53957;47.222;18.670;2022-08-01T09:58:24;100040.78;;;26.83;49.70
67052;BME280;53957;47.222;18.670;2022-08-01T10:01:28;100045.66;;;27.13;49.37
67052;BME280;53957;47.222;18.670;2022-08-01T10:04:50;100047.97;;;27.22;47.10
67052;BME280;53957;47.222;18.670;2022-08-01T10:08:03;100043.63;;;27.28;47.37
67052;BME280;53957;47.222;18.670;2022-08-01T10:11:11;100048.44;;;27.10;48.23
67052;BME280;53957;47.222;18.670;2022-08-01T10:14:18;100056.59;;;27.17;49.65
67052;BME280;53957;47.222;18.670;2022-08-01T10:17:25;100047.28;;;27.04;48.30
67052;BME280;53957;47.222;18.670;2022-08-01T10:20:47;100044.78;;;27.27;48.07
67052;BME280;53957;47.222;18.670;2022-08-01T10:23:54;100043.03;;;28.08;47.22
67052;BME280;53957;47.222;18.670;2022-08-01T10:27:07;100035.50;;;28.50;45.70
67052;BME280;53957;47.222;18.670;2022-08-01T10:30:11;100031.78;;;28.33;44.97
67052;BME280;53957;47.222;18.670;2022-08-01T10:33:24;100043.69;;;28.54;43.87
67052;BME280;53957;47.222;18.670;2022-08-01T11:42:18;99992.87;;;29.55;37.59
67052;BME280;53957;47.222;18.670;2022-08-01T11:49:23;99984.78;;;29.20;37.66
67052;BME280;53957;47.222;18.670;2022-08-01T11:52:31;99982.69;;;28.77;39.80
67052;BME280;53957;47.222;18.670;2022-08-01T11:55:45;99990.69;;;28.91;39.68
67052;BME280;53957;47.222;18.670;2022-08-01T11:58:59;99992.00;;;28.83;39.97
67052;BME280;53957;47.222;18.670;2022-08-01T12:02:02;99988.28;;;29.48;37.20
67052;BME280;53957;47.222;18.670;2022-08-01T12:05:08;99989.97;;;29.90;38.67
67052;BME280;53957;47.222;18.670;2022-08-01T12:08:24;99983.97;;;30.35;35.82
67052;BME280;53957;47.222;18.670;2022-08-01T12:11:28;99988.91;;;29.60;37.16
67052;BME280;53957;47.222;18.670;2022-08-01T12:14:38;99994.53;;;29.25;38.42
67052;BME280;53957;47.222;18.670;2022-08-01T12:17:44;99996.19;;;28.91;39.26
67052;BME280;53957;47.222;18.670;2022-08-01T12:21:02;99988.88;;;29.08;38.39
67052;BME280;53957;47.222;18.670;2022-08-01T12:24:07;99983.34;;;29.12;38.67
67052;BME280;53957;47.222;18.670;2022-08-01T12:27:10;99987.03;;;29.29;38.94
67052;BME280;53957;47.222;18.670;2022-08-01T12:30:20;99974.78;;;30.01;39.12
67052;BME280;53957;47.222;18.670;2022-08-01T12:33:27;99977.56;;;30.22;37.35
67052;BME280;53957;47.222;18.670;2022-08-01T12:36:30;99975.44;;;30.29;38.62
67052;BME280;53957;47.222;18.670;2022-08-01T12:39:33;99969.97;;;30.46;35.20
67052;BME280;53957;47.222;18.670;2022-08-01T12:42:41;99974.44;;;30.60;34.96
67052;BME280;53957;47.222;18.670;2022-08-01T12:45:46;99981.31;;;30.68;34.20
67052;BME280;53957;47.222;18.670;2022-08-01T12:48:59;99968.97;;;30.76;34.43
67052;BME280;53957;47.222;18.670;2022-08-01T12:52:02;99974.31;;;30.83;33.64
67052;BME280;53957;47.222;18.670;2022-08-01T12:55:11;99962.03;;;30.51;37.02
67052;BME280;53957;47.222;18.670;2022-08-01T12:58:15;99965.25;;;30.46;37.01
67052;BME280;53957;47.222;18.670;2022-08-01T13:01:25;99961.16;;;30.55;35.89
67052;BME280;53957;47.222;18.670;2022-08-01T13:04:28;99950.75;;;30.26;34.61
67052;BME280;53957;47.222;18.670;2022-08-01T13:07:46;99958.00;;;30.16;37.05
67052;BME280;53957;47.222;18.670;2022-08-01T13:11:00;99949.66;;;30.40;38.26
67052;BME280;53957;47.222;18.670;2022-08-01T13:14:03;99946.59;;;29.53;37.94
67052;BME280;53957;47.222;18.670;2022-08-01T13:17:06;99957.19;;;29.75;35.14
67052;BME280;53957;47.222;18.670;2022-08-01T13:20:21;99949.47;;;30.30;35.69
67052;BME280;53957;47.222;18.670;2022-08-01T13:23:24;99947.56;;;30.27;35.07
67052;BME280;53957;47.222;18.670;2022-08-01T13:26:58;99949.44;;;29.70;36.52
67052;BME280;53957;47.222;18.670;2022-08-01T13:30:14;99948.59;;;29.29;39.56
67052;BME280;53957;47.222;18.670;2022-08-01T13:33:18;99948.78;;;29.15;39.15
67052;BME280;53957;47.222;18.670;2022-08-01T15:49:28;99953.06;;;28.92;41.01
67052;BME280;53957;47.222;18.670;2022-08-01T15:52:31;99947.31;;;28.52;44.12
67052;BME280;53957;47.222;18.670;2022-08-01T15:55:38;99949.47;;;28.68;41.19
67052;BME280;53957;47.222;18.670;2022-08-01T15:58:41;99937.53;;;28.51;42.28
67052;BME280;53957;47.222;18.670;2022-08-01T16:01:44;99944.44;;;28.32;41.04
67052;BME280;53957;47.222;18.670;2022-08-01T16:04:52;99950.84;;;28.21;42.16
67052;BME280;53957;47.222;18.670;2022-08-01T16:07:54;99945.44;;;28.14;41.33
67052;BME280;53957;47.222;18.670;2022-08-01T16:11:03;99952.66;;;27.97;42.96
67052;BME280;53957;47.222;18.670;2022-08-01T16:14:06;99948.06;;;27.87;44.14
67052;BME280;53957;47.222;18.670;2022-08-01T16:17:09;99945.59;;;27.96;44.15
67052;BME280;53957;47.222;18.670;2022-08-01T16:20:12;99946.97;;;27.80;44.82
67052;BME280;53957;47.222;18.670;2022-08-01T16:23:18;99951.66;;;27.80;43.54
67052;BME280;53957;47.222;18.670;2022-08-01T16:26:21;99950.59;;;27.67;44.74
67052;BME280;53957;47.222;18.670;2022-08-01T16:29:30;99944.97;;;27.43;45.16
67052;BME280;53957;47.222;18.670;2022-08-01T16:32:33;99948.88;;;27.42;45.70
67052;BME280;53957;47.222;18.670;2022-08-01T16:35:43;99941.34;;;27.53;44.10
67052;BME280;53957;47.222;18.670;2022-08-01T16:38:50;99941.47;;;27.39;45.14
67052;BME280;53957;47.222;18.670;2022-08-01T16:41:53;99944.59;;;27.41;44.53
67052;BME280;53957;47.222;18.670;2022-08-01T16:44:57;99951.69;;;27.27;45.48
67052;BME280;53957;47.222;18.670;2022-08-01T16:48:01;99952.94;;;27.23;46.06
67052;BME280;53957;47.222;18.670;2022-08-01T16:51:04;99954.91;;;27.19;44.57
67052;BME280;53957;47.222;18.670;2022-08-01T16:54:07;99954.22;;;27.04;46.19
67052;BME280;53957;47.222;18.670;2022-08-01T16:57:27;99958.62;;;26.90;46.94
67052;BME280;53957;47.222;18.670;2022-08-01T17:00:40;99961.41;;;26.83;46.79
67052;BME280;53957;47.222;18.670;2022-08-01T17:03:58;99963.31;;;26.93;45.50
67052;BME280;53957;47.222;18.670;2022-08-01T17:07:03;99957.56;;;26.70;46.90
67052;BME280;53957;47.222;18.670;2022-08-01T17:10:07;99963.06;;;26.59;47.19
67052;BME280;53957;47.222;18.670;2022-08-01T17:13:11;99962.37;;;26.40;46.98
67052;BME280;53957;47.222;18.670;2022-08-01T17:16:13;99970.97;;;26.42;47.46
67052;BME280;53957;47.222;18.670;2022-08-01T17:19:17;99972.19;;;26.27;48.11
67052;BME280;53957;47.222;18.670;2022-08-01T17:22:25;99981.97;;;26.24;49.21
67052;BME280;53957;47.222;18.670;2022-08-01T17:25:28;99976.94;;;26.08;48.57
67052;BME280;53957;47.222;18.670;2022-08-01T17:28:32;99976.94;;;25.94;49.92
67052;BME280;53957;47.222;18.670;2022-08-01T17:31:35;99982.03;;;25.84;50.28
67052;BME280;53957;47.222;18.670;2022-08-01T17:34:39;99979.72;;;25.76;50.44
67052;BME280;53957;47.222;18.670;2022-08-01T17:37:42;99978.16;;;25.60;50.76
67052;BME280;53957;47.222;18.670;2022-08-01T17:40:46;99980.88;;;25.75;50.39
67052;BME280;53957;47.222;18.670;2022-08-01T17:43:51;99983.63;;;25.53;51.11
67052;BME280;53957;47.222;18.670;2022-08-01T17:46:54;99987.53;;;25.37;51.92
67052;BME280;53957;47.222;18.670;2022-08-01T17:49:57;99984.34;;;25.24;52.84
67052;BME280;53957;47.222;18.670;2022-08-01T17:53:04;99989.44;;;25.19;52.55
67052;BME280;53957;47.222;18.670;2022-08-01T17:56:07;99985.53;;;25.16;52.13
67052;BME280;53957;47.222;18.670;2022-08-01T17:59:10;99993.31;;;25.03;53.64
67052;BME280;53957;47.222;18.670;2022-08-01T18:02:13;99987.81;;;24.96;54.00
67052;BME280;53957;47.222;18.670;2022-08-01T18:05:16;99995.22;;;24.88;53.85
67052;BME280;53957;47.222;18.670;2022-08-01T18:08:19;99996.00;;;24.82;54.36
67052;BME280;53957;47.222;18.670;2022-08-01T18:11:24;99990.50;;;24.74;54.56
67052;BME280;53957;47.222;18.670;2022-08-01T18:14:29;100003.66;;;24.58;54.93
67052;BME280;53957;47.222;18.670;2022-08-01T18:17:42;99992.72;;;24.54;54.84
67052;BME280;53957;47.222;18.670;2022-08-01T18:20:48;99998.88;;;24.33;55.60
67052;BME280;53957;47.222;18.670;2022-08-01T18:23:51;99999.63;;;24.26;56.54
67052;BME280;53957;47.222;18.670;2022-08-01T18:26:54;100005.38;;;24.10;56.92
67052;BME280;53957;47.222;18.670;2022-08-01T18:29:58;100009.59;;;24.01;57.56
67052;BME280;53957;47.222;18.670;2022-08-01T18:33:00;100014.25;;;23.97;57.60
67052;BME280;53957;47.222;18.670;2022-08-01T18:36:04;100019.59;;;23.86;58.26
67052;BME280;53957;47.222;18.670;2022-08-01T18:39:08;100021.84;;;23.76;58.54
67052;BME280;53957;47.222;18.670;2022-08-01T18:42:12;100026.47;;;23.72;58.46
67052;BME280;53957;47.222;18.670;2022-08-01T18:45:15;100027.97;;;23.62;58.94
67052;BME280;53957;47.222;18.670;2022-08-01T21:15:57;100076.59;;;22.35;64.40
67052;BME280;53957;47.222;18.670;2022-08-01T21:19:29;100083.31;;;22.41;64.36
67052;BME280;53957;47.222;18.670;2022-08-01T21:23:09;100078.59;;;22.38;64.37
67052;BME280;53957;47.222;18.670;2022-08-01T21:26:14;100084.41;;;22.13;66.14
67052;BME280;53957;47.222;18.670;2022-08-01T21:29:21;100087.00;;;22.06;66.22
67052;BME280;53957;47.222;18.670;2022-08-01T21:32:28;100087.13;;;21.90;66.96
67052;BME280;53957;47.222;18.670;2022-08-01T21:35:32;100090.53;;;21.83;68.50
67052;BME280;53957;47.222;18.670;2022-08-01T21:38:36;100096.59;;;21.77;68.12
67052;BME280;53957;47.222;18.670;2022-08-01T21:41:42;100095.41;;;21.74;68.42
67052;BME280;53957;47.222;18.670;2022-08-01T21:45:06;100103.38;;;21.63;69.66
67052;BME280;53957;47.222;18.670;2022-08-01T21:48:12;100101.94;;;21.50;70.00
67052;BME280;53957;47.222;18.670;2022-08-01T21:51:40;100097.16;;;21.43;70.53
67052;BME280;53957;47.222;18.670;2022-08-01T21:58:44;100095.41;;;21.31;72.58
67052;BME280;53957;47.222;18.670;2022-08-01T22:02:00;100098.81;;;21.28;72.46
67052;BME280;53957;47.222;18.670;2022-08-01T22:05:09;100092.47;;;21.20;72.64
67052;BME280;53957;47.222;18.670;2022-08-01T22:08:14;100112.59;;;21.19;73.02
67052;BME280;53957;47.222;18.670;2022-08-01T22:11:28;100112.22;;;21.21;71.80
67052;BME280;53957;47.222;18.670;2022-08-01T22:14:32;100115.31;;;21.19;72.12
67052;BME280;53957;47.222;18.670;2022-08-01T22:17:36;100112.13;;;21.14;72.84
67052;BME280;53957;47.222;18.670;2022-08-01T22:20:40;100106.47;;;21.03;73.13
67052;BME280;53957;47.222;18.670;2022-08-01T22:23:44;100111.81;;;20.99;73.22
67052;BME280;53957;47.222;18.670;2022-08-01T22:26:47;100117.25;;;20.99;73.14
67052;BME280;53957;47.222;18.670;2022-08-01T22:29:56;100110.88;;;20.91;73.05
67052;BME280;53957;47.222;18.670;2022-08-01T22:32:59;100112.31;;;20.85;73.41
67052;BME280;53957;47.222;18.670;2022-08-01T22:36:18;100108.72;;;20.81;73.02
67052;BME280;53957;47.222;18.670;2022-08-01T22:39:22;100114.94;;;20.82;72.59
67052;BME280;53957;47.222;18.670;2022-08-01T22:45:42;100108.72;;;20.65;73.69
67052;BME280;53957;47.222;18.670;2022-08-01T22:48:59;100106.06;;;20.49;74.27
67052;BME280;53957;47.222;18.670;2022-08-01T22:52:16;100102.22;;;20.50;75.18
67052;BME280;53957;47.222;18.670;2022-08-01T22:55:20;100108.59;;;20.42;75.84
67052;BME280;53957;47.222;18.670;2022-08-01T22:58:24;100104.50;;;20.32;75.93
67052;BME280;53957;47.222;18.670;2022-08-01T23:01:30;100114.75;;;20.23;76.76
67052;BME280;53957;47.222;18.670;2022-08-01T23:04:42;100108.63;;;20.10;77.14
67052;BME280;53957;47.222;18.670;2022-08-01T23:07:51;100110.19;;;19.95;77.68
67052;BME280;53957;47.222;18.670;2022-08-01T23:10:54;100111.41;;;19.82;78.44
